Terminal Aerodrome Forecast
Issued by NWS

Home | Current Version | Previous Version | Text Only | Print | Product List | Glossary On
Versions: 1 2 3 4 5 6 7 8 9 10 11 12 13 14 15 16 17 18 19 20 21 22 23 24 25 26 27
000
FTUS41 KOKX 040529
TAFSWF
TAF
KSWF 040529Z 0406/0512 25004KT 6SM BR SCT050 BKN100
      TEMPO 0406/0407 3SM TSRA SCT030CB BKN050
     FM040700 VRB04KT 5SM SHRA BR SCT050 SCT100
     FM041100 26008KT P6SM SCT050 SCT100
     FM041600 28014G22KT P6SM SCT050 BKN100
     FM042200 28010KT P6SM SCT050 SCT100
     FM050200 28004KT P6SM SCT050 SCT100
      AMD NOT SKED=

USA.gov is the U.S. government's official web portal to all federal, state and local government web resources and services.